Time;durP1;ratioP1;P1;durP2;ratioP2;P2;SDS_P1;SDS_P2;PMS_P1;PMS_P2;Temp;Humidity;BMP_temperature;BMP_pressure;BME280_temperature;BME280_humidity;BME280_pressure;Samples;Min_cycle;Max_cycle;Signal;HPM_P1;HPM_P2
2022/08/04 00:00:08;;;;;;;;;;;;;;;;;;4973118;28;20258;-42
2022/08/04 00:02:34;;;;;;;;;;;;;;;;;;4973236;28;19910;-41
2022/08/04 00:04:59;;;;;;;;;;;;;;;;;;4973203;28;19913;-42
2022/08/04 00:07:24;;;;;;;;;;;;;;;;;;4973180;28;19910;-42
2022/08/04 00:09:49;;;;;;;;;;;;;;;;;;4973438;28;19914;-42
2022/08/04 00:12:15;;;;;;;;;;;;;;;;;;4973403;28;19914;-42
2022/08/04 00:14:40;;;;;;;;;;;;;;;;;;4973385;28;19906;-42
2022/08/04 00:17:05;;;;;;;;;;;;;;;;;;4972839;28;19922;-42
2022/08/04 00:19:30;;;;;;;;;;;;;;;;;;4973150;28;19933;-42
2022/08/04 00:21:56;;;;;;;;;;;;;;;;;;4973164;28;19911;-42
2022/08/04 00:24:21;;;;;;;;;;;;;;;;;;4972925;28;19910;-42
2022/08/04 00:26:46;;;;;;;;;;;;;;;;;;4973254;28;19910;-41
2022/08/04 00:29:11;;;;;;;;;;;;;;;;;;4955649;28;20261;-42
2022/08/04 00:31:37;;;;;;;;;;;;;;;;;;4972965;28;19946;-42
2022/08/04 00:34:02;;;;;;;;;;;;;;;;;;4973200;28;20338;-42
2022/08/04 00:36:27;;;;;;;;;;;;;;;;;;4972817;28;20369;-42
2022/08/04 00:38:52;;;;;;;;;;;;;;;;;;4972857;28;19910;-42
2022/08/04 00:41:18;;;;;;;;;;;;;;;;;;4955875;28;20361;-42
2022/08/04 00:43:43;;;;;;;;;;;;;;;;;;4975154;28;20281;-46
2022/08/04 00:46:10;;;;;;;;;;;;;;;;;;4976769;28;19953;-42
2022/08/04 00:48:35;;;;;;;;;;;;;;;;;;4976693;28;19921;-42
2022/08/04 00:51:00;;;;;;;;;;;;;;;;;;4976621;28;19914;-42
2022/08/04 00:53:25;;;;;;;;;;;;;;;;;;4959604;28;19910;-42
2022/08/04 00:55:51;;;;;;;;;;;;;;;;;;4976546;28;19910;-42
2022/08/04 00:58:17;;;;;;;;;;;;;;;;;;4976335;28;19914;-42
2022/08/04 01:00:43;;;;;;;;;;;;;;;;;;4976236;28;19918;-42
2022/08/04 01:03:09;;;;;;;;;;;;;;;;;;4976381;28;19917;-42
2022/08/04 01:05:34;;;;;;;;;;;;;;;;;;4959033;28;20300;-42
2022/08/04 01:08:00;;;;;;;;;;;;;;;;;;4976475;28;19910;-43
2022/08/04 01:10:25;;;;;;;;;;;;;;;;;;4976675;28;19914;-42
2022/08/04 01:12:51;;;;;;;;;;;;;;;;;;4976293;28;19910;-42
2022/08/04 01:15:16;;;;;;;;;;;;;;;;;;4976152;28;19914;-42
2022/08/04 01:17:41;;;;;;;;;;;;;;;;;;4976413;28;19918;-42
2022/08/04 01:20:07;;;;;;;;;;;;;;;;;;4959060;28;19934;-42
2022/08/04 01:22:32;;;;;;;;;;;;;;;;;;4976420;28;20312;-42
2022/08/04 01:24:57;;;;;;;;;;;;;;;;;;4976116;28;19925;-42
2022/08/04 01:27:23;;;;;;;;;;;;;;;;;;4975905;28;20020;-42
2022/08/04 01:29:48;;;;;;;;;;;;;;;;;;4975924;28;20261;-43
2022/08/04 01:32:13;;;;;;;;;;;;;;;;;;4975899;28;19906;-43
2022/08/04 01:34:38;;;;;;;;;;;;;;;;;;4975762;28;20360;-42
2022/08/04 01:37:04;;;;;;;;;;;;;;;;;;4975638;28;19914;-42
2022/08/04 01:39:41;;;;;;;;;;;;;;;;;;4975841;28;19916;-42
2022/08/04 01:42:07;;;;;;;;;;;;;;;;;;4975681;28;20521;-42
2022/08/04 01:44:32;;;;;;;;;;;;;;;;;;4976002;28;19910;-42
2022/08/04 01:46:57;;;;;;;;;;;;;;;;;;4975855;28;20320;-42
2022/08/04 01:49:22;;;;;;;;;;;;;;;;;;4975794;28;19917;-42
2022/08/04 01:51:48;;;;;;;;;;;;;;;;;;4975587;28;19964;-42
2022/08/04 01:54:13;;;;;;;;;;;;;;;;;;4975164;28;19940;-42
2022/08/04 01:56:38;;;;;;;;;;;;;;;;;;4975637;28;19945;-42
2022/08/04 01:59:04;;;;;;;;;;;;;;;;;;4975415;28;20272;-42
2022/08/04 02:01:29;;;;;;;;;;;;;;;;;;4975330;28;19922;-42
2022/08/04 02:03:54;;;;;;;;;;;;;;;;;;4975610;28;20492;-43
2022/08/04 02:06:19;;;;;;;;;;;;;;;;;;4975274;28;20437;-42
2022/08/04 02:08:45;;;;;;;;;;;;;;;;;;4975290;28;19906;-42
2022/08/04 02:11:10;;;;;;;;;;;;;;;;;;4975120;28;19916;-42
2022/08/04 02:13:35;;;;;;;;;;;;;;;;;;4957803;28;19910;-42
2022/08/04 02:16:00;;;;;;;;;;;;;;;;;;4975029;28;19914;-42
2022/08/04 02:18:26;;;;;;;;;;;;;;;;;;4975414;28;19921;-42
2022/08/04 02:20:51;;;;;;;;;;;;;;;;;;4975339;28;19980;-42
2022/08/04 02:23:16;;;;;;;;;;;;;;;;;;4975186;28;19910;-42
2022/08/04 02:25:41;;;;;;;;;;;;;;;;;;4974928;28;19917;-42
2022/08/04 02:28:07;;;;;;;;;;;;;;;;;;4974876;28;19922;-42
2022/08/04 02:30:32;;;;;;;;;;;;;;;;;;4974846;28;19911;-42
2022/08/04 02:32:57;;;;;;;;;;;;;;;;;;4974815;28;19916;-42
2022/08/04 02:35:22;;;;;;;;;;;;;;;;;;4974744;28;19917;-42
2022/08/04 02:37:48;;;;;;;;;;;;;;;;;;4974564;28;20305;-42
2022/08/04 02:40:13;;;;;;;;;;;;;;;;;;4974863;28;19916;-42
2022/08/04 02:42:38;;;;;;;;;;;;;;;;;;4974909;28;19910;-42
2022/08/04 02:45:03;;;;;;;;;;;;;;;;;;4974848;28;19968;-42
2022/08/04 02:47:29;;;;;;;;;;;;;;;;;;4974402;28;20353;-42
2022/08/04 02:49:54;;;;;;;;;;;;;;;;;;4974522;28;19968;-42
2022/08/04 02:52:19;;;;;;;;;;;;;;;;;;4974369;28;19914;-43
2022/08/04 02:54:45;;;;;;;;;;;;;;;;;;4974416;28;19950;-42
2022/08/04 02:57:10;;;;;;;;;;;;;;;;;;4974249;28;20391;-41
2022/08/04 02:59:35;;;;;;;;;;;;;;;;;;4974162;28;20284;-43
2022/08/04 03:02:01;;;;;;;;;;;;;;;;;;4974519;28;19921;-42
2022/08/04 03:04:26;;;;;;;;;;;;;;;;;;4974231;28;20288;-42
2022/08/04 03:06:51;;;;;;;;;;;;;;;;;;4973226;28;20005;-42
2022/08/04 03:09:17;;;;;;;;;;;;;;;;;;4974347;28;19917;-42
2022/08/04 03:11:42;;;;;;;;;;;;;;;;;;4974161;28;20400;-42
2022/08/04 03:14:08;;;;;;;;;;;;;;;;;;4973932;28;19918;-42
2022/08/04 03:16:33;;;;;;;;;;;;;;;;;;4973978;28;19909;-42
2022/08/04 03:18:58;;;;;;;;;;;;;;;;;;4974259;28;19914;-42
2022/08/04 03:21:23;;;;;;;;;;;;;;;;;;4974073;28;19909;-42
2022/08/04 03:23:49;;;;;;;;;;;;;;;;;;4973878;28;19965;-42
2022/08/04 03:26:14;;;;;;;;;;;;;;;;;;4973849;28;19973;-42
2022/08/04 03:28:39;;;;;;;;;;;;;;;;;;4973628;28;19910;-42
2022/08/04 03:31:04;;;;;;;;;;;;;;;;;;4974023;28;19906;-42
2022/08/04 03:33:30;;;;;;;;;;;;;;;;;;4973800;28;20495;-42
2022/08/04 03:35:55;;;;;;;;;;;;;;;;;;4973696;28;20387;-42
2022/08/04 03:38:20;;;;;;;;;;;;;;;;;;4973749;28;19922;-42
2022/08/04 03:40:46;;;;;;;;;;;;;;;;;;4973669;28;20383;-42
2022/08/04 03:43:11;;;;;;;;;;;;;;;;;;4973392;28;19953;-42
2022/08/04 03:45:36;;;;;;;;;;;;;;;;;;4973511;28;19906;-43
2022/08/04 03:48:01;;;;;;;;;;;;;;;;;;4956074;28;19914;-42
2022/08/04 03:50:27;;;;;;;;;;;;;;;;;;4973722;28;20315;-42
2022/08/04 03:53:10;;;;;;;;;;;;;;;;;;4956440;28;20028;-42
2022/08/04 03:55:35;;;;;;;;;;;;;;;;;;4973689;28;19941;-42
2022/08/04 03:58:01;;;;;;;;;;;;;;;;;;4973406;28;19920;-42
2022/08/04 04:00:26;;;;;;;;;;;;;;;;;;4973307;28;19940;-42
2022/08/04 04:02:51;;;;;;;;;;;;;;;;;;4973324;28;19906;-42
2022/08/04 04:05:16;;;;;;;;;;;;;;;;;;4973111;28;20297;-42
2022/08/04 04:07:41;;;;;;;;;;;;;;;;;;4973232;28;20000;-42
2022/08/04 04:10:07;;;;;;;;;;;;;;;;;;4973437;28;19917;-42
2022/08/04 04:12:32;;;;;;;;;;;;;;;;;;4973114;28;19913;-42
2022/08/04 04:14:57;;;;;;;;;;;;;;;;;;4973195;28;19918;-43
2022/08/04 04:17:23;;;;;;;;;;;;;;;;;;4972761;28;19973;-43
2022/08/04 04:19:48;;;;;;;;;;;;;;;;;;4973357;28;19924;-43
2022/08/04 04:22:13;;;;;;;;;;;;;;;;;;4973249;28;20008;-42
2022/08/04 04:24:38;;;;;;;;;;;;;;;;;;4973353;28;19917;-42
2022/08/04 04:27:03;;;;;;;;;;;;;;;;;;4973149;28;19913;-42
2022/08/04 04:29:29;;;;;;;;;;;;;;;;;;4973033;28;20372;-42
2022/08/04 04:31:54;;;;;;;;;;;;;;;;;;4973237;28;19906;-42
2022/08/04 04:34:19;;;;;;;;;;;;;;;;;;4972847;28;19914;-42
2022/08/04 04:36:45;;;;;;;;;;;;;;;;;;4972902;28;19917;-42
2022/08/04 04:39:10;;;;;;;;;;;;;;;;;;4972840;28;19937;-42
2022/08/04 04:41:36;;;;;;;;;;;;;;;;;;4972879;28;19917;-43
2022/08/04 04:44:01;;;;;;;;;;;;;;;;;;4972852;28;19953;-42
2022/08/04 04:46:27;;;;;;;;;;;;;;;;;;4955593;28;20045;-42
2022/08/04 04:48:52;;;;;;;;;;;;;;;;;;4973161;28;19938;-43
2022/08/04 04:51:17;;;;;;;;;;;;;;;;;;4973026;28;19910;-42
2022/08/04 04:53:43;;;;;;;;;;;;;;;;;;4972855;28;20267;-42
2022/08/04 04:56:08;;;;;;;;;;;;;;;;;;4972650;28;20348;-42
2022/08/04 04:58:34;;;;;;;;;;;;;;;;;;4972864;28;19929;-42
2022/08/04 05:00:59;;;;;;;;;;;;;;;;;;4955421;28;19918;-41
2022/08/04 05:03:25;;;;;;;;;;;;;;;;;;4972607;28;19910;-42
2022/08/04 05:05:50;;;;;;;;;;;;;;;;;;4972881;28;19906;-41
2022/08/04 05:08:15;;;;;;;;;;;;;;;;;;4955593;28;19910;-42
2022/08/04 05:10:41;;;;;;;;;;;;;;;;;;4972975;28;20259;-42
2022/08/04 05:13:06;;;;;;;;;;;;;;;;;;4972630;28;19964;-42
2022/08/04 05:15:31;;;;;;;;;;;;;;;;;;4972884;28;19906;-41
2022/08/04 05:17:57;;;;;;;;;;;;;;;;;;4972591;28;19949;-42
2022/08/04 05:20:22;;;;;;;;;;;;;;;;;;4972805;28;19949;-42
2022/08/04 05:22:47;;;;;;;;;;;;;;;;;;4972558;28;19925;-42
2022/08/04 05:25:13;;;;;;;;;;;;;;;;;;4972713;28;19910;-42
2022/08/04 05:27:38;;;;;;;;;;;;;;;;;;4972531;28;20381;-42
2022/08/04 05:30:04;;;;;;;;;;;;;;;;;;4974813;28;19906;-42
2022/08/04 05:32:29;;;;;;;;;;;;;;;;;;4975990;28;20518;-41
2022/08/04 05:34:54;;;;;;;;;;;;;;;;;;4976110;28;20379;-42
2022/08/04 05:37:20;;;;;;;;;;;;;;;;;;4958214;28;20372;-42
2022/08/04 05:39:48;;;;;;;;;;;;;;;;;;4958414;28;19906;-42
2022/08/04 05:42:13;;;;;;;;;;;;;;;;;;4975805;28;19917;-42
2022/08/04 05:44:39;;;;;;;;;;;;;;;;;;4958412;28;19907;-42
2022/08/04 05:47:05;;;;;;;;;;;;;;;;;;4975586;28;19916;-41
2022/08/04 05:49:30;;;;;;;;;;;;;;;;;;4975691;28;19906;-42
2022/08/04 05:51:56;;;;;;;;;;;;;;;;;;4975541;28;19910;-42
2022/08/04 05:54:21;;;;;;;;;;;;;;;;;;4975744;28;19906;-42
2022/08/04 05:56:47;;;;;;;;;;;;;;;;;;4975746;28;20428;-42
2022/08/04 05:59:13;;;;;;;;;;;;;;;;;;4942045;28;19944;-42
2022/08/04 06:01:39;;;;;;;;;;;;;;;;;;4975341;28;19957;-42
2022/08/04 06:04:04;;;;;;;;;;;;;;;;;;4975337;28;20026;-42
2022/08/04 06:06:30;;;;;;;;;;;;;;;;;;4975229;28;19965;-42
2022/08/04 06:08:55;;;;;;;;;;;;;;;;;;4975291;28;19906;-42
2022/08/04 06:11:21;;;;;;;;;;;;;;;;;;4975159;28;19909;-42
2022/08/04 06:13:46;;;;;;;;;;;;;;;;;;4975189;28;19910;-42
2022/08/04 06:16:11;;;;;;;;;;;;;;;;;;4975337;28;19916;-41
2022/08/04 06:18:36;;;;;;;;;;;;;;;;;;4975329;28;19910;-42
2022/08/04 06:21:02;;;;;;;;;;;;;;;;;;4974995;28;20373;-42
2022/08/04 06:23:27;;;;;;;;;;;;;;;;;;4974983;28;19917;-42
2022/08/04 06:25:53;;;;;;;;;;;;;;;;;;4975257;28;19921;-42
2022/08/04 06:28:18;;;;;;;;;;;;;;;;;;4974785;28;19914;-42
2022/08/04 06:30:48;;;;;;;;;;;;;;;;;;4974871;28;19937;-42
2022/08/04 06:33:25;;;;;;;;;;;;;;;;;;4975010;28;19917;-42
2022/08/04 06:35:52;;;;;;;;;;;;;;;;;;4974768;28;20265;-41
2022/08/04 06:38:17;;;;;;;;;;;;;;;;;;4974611;28;19914;-42
2022/08/04 06:40:43;;;;;;;;;;;;;;;;;;4974543;28;19916;-42
2022/08/04 06:43:08;;;;;;;;;;;;;;;;;;4974897;28;19917;-42
2022/08/04 06:45:34;;;;;;;;;;;;;;;;;;4957290;28;19917;-42
2022/08/04 06:47:59;;;;;;;;;;;;;;;;;;4974544;28;19906;-42
2022/08/04 06:50:25;;;;;;;;;;;;;;;;;;4974534;28;20411;-42
2022/08/04 06:52:50;;;;;;;;;;;;;;;;;;4974509;28;19906;-41
2022/08/04 06:55:15;;;;;;;;;;;;;;;;;;4974607;28;19914;-41
2022/08/04 06:57:41;;;;;;;;;;;;;;;;;;4974306;28;19914;-42
2022/08/04 07:00:09;;;;;;;;;;;;;;;;;;4974156;28;19961;-43
2022/08/04 07:02:34;;;;;;;;;;;;;;;;;;4974279;28;19910;-42
2022/08/04 07:05:00;;;;;;;;;;;;;;;;;;4974302;28;19918;-42
2022/08/04 07:07:25;;;;;;;;;;;;;;;;;;4974167;28;19951;-42
2022/08/04 07:09:50;;;;;;;;;;;;;;;;;;4974061;28;19913;-42
2022/08/04 07:12:19;;;;;;;;;;;;;;;;;;4973996;28;19952;-42
2022/08/04 07:14:44;;;;;;;;;;;;;;;;;;4974090;28;19917;-42
2022/08/04 07:17:09;;;;;;;;;;;;;;;;;;4973833;28;19914;-42
2022/08/04 07:19:34;;;;;;;;;;;;;;;;;;4974041;28;20384;-42
2022/08/04 07:22:00;;;;;;;;;;;;;;;;;;4973965;28;19912;-42
2022/08/04 07:24:25;;;;;;;;;;;;;;;;;;4973761;28;19917;-42
2022/08/04 07:26:51;;;;;;;;;;;;;;;;;;4973824;28;19910;-42
2022/08/04 07:29:16;;;;;;;;;;;;;;;;;;4973771;28;19916;-42
2022/08/04 07:31:41;;;;;;;;;;;;;;;;;;4973857;28;19906;-42
2022/08/04 07:34:07;;;;;;;;;;;;;;;;;;4973757;28;19921;-42
2022/08/04 07:36:32;;;;;;;;;;;;;;;;;;4973540;28;19914;-41
2022/08/04 07:38:57;;;;;;;;;;;;;;;;;;4973898;28;19972;-41
2022/08/04 07:41:23;;;;;;;;;;;;;;;;;;4973799;28;19964;-42
2022/08/04 07:43:51;;;;;;;;;;;;;;;;;;4973909;28;19921;-42
2022/08/04 07:46:16;;;;;;;;;;;;;;;;;;4956082;28;19906;-41
2022/08/04 07:48:41;;;;;;;;;;;;;;;;;;4973487;28;19956;-45
2022/08/04 07:51:07;;;;;;;;;;;;;;;;;;4973562;28;19913;-42
2022/08/04 07:53:32;;;;;;;;;;;;;;;;;;4973397;28;19910;-42
2022/08/04 07:55:57;;;;;;;;;;;;;;;;;;4973467;28;19914;-42
2022/08/04 07:58:23;;;;;;;;;;;;;;;;;;4973097;28;19964;-43
2022/08/04 08:00:48;;;;;;;;;;;;;;;;;;4952635;28;19926;-42
2022/08/04 08:03:14;;;;;;;;;;;;;;;;;;4953983;28;19969;-42
2022/08/04 08:05:39;;;;;;;;;;;;;;;;;;4953977;28;19911;-42
2022/08/04 08:08:05;;;;;;;;;;;;;;;;;;4953822;29;20419;-42
2022/08/04 08:10:30;;;;;;;;;;;;;;;;;;4953963;28;19910;-42
2022/08/04 08:12:55;;;;;;;;;;;;;;;;;;4953929;28;19914;-42
2022/08/04 08:15:21;;;;;;;;;;;;;;;;;;4954066;29;19962;-42
2022/08/04 08:17:46;;;;;;;;;;;;;;;;;;4953814;28;20021;-42
2022/08/04 08:20:11;;;;;;;;;;;;;;;;;;4953781;28;19910;-42
2022/08/04 08:22:37;;;;;;;;;;;;;;;;;;4954028;29;19973;-42
2022/08/04 08:25:02;;;;;;;;;;;;;;;;;;4954119;28;19913;-42
2022/08/04 08:27:27;;;;;;;;;;;;;;;;;;4953668;28;19917;-42
2022/08/04 08:29:53;;;;;;;;;;;;;;;;;;4954021;29;19913;-41
2022/08/04 08:32:18;;;;;;;;;;;;;;;;;;4953662;29;19918;-42
2022/08/04 08:34:44;;;;;;;;;;;;;;;;;;4953665;29;20353;-42
2022/08/04 08:37:09;;;;;;;;;;;;;;;;;;4953627;28;19958;-42
2022/08/04 08:39:35;;;;;;;;;;;;;;;;;;4953693;29;19946;-41
2022/08/04 08:42:00;;;;;;;;;;;;;;;;;;4953618;28;19910;-42
2022/08/04 08:44:26;;;;;;;;;;;;;;;;;;4953558;29;19913;-42
2022/08/04 08:46:51;;;;;;;;;;;;;;;;;;4953615;28;19910;-42
2022/08/04 08:49:16;;;;;;;;;;;;;;;;;;4953745;29;19910;-42
2022/08/04 08:51:42;;;;;;;;;;;;;;;;;;4952335;29;20357;-42
2022/08/04 08:54:08;;;;;;;;;;;;;;;;;;4953573;28;20006;-42
2022/08/04 08:56:33;;;;;;;;;;;;;;;;;;4953390;28;19911;-41
2022/08/04 08:58:58;;;;;;;;;;;;;;;;;;4953586;28;19952;-42
2022/08/04 09:01:24;;;;;;;;;;;;;;;;;;4969726;28;19921;-42
2022/08/04 09:03:49;;;;;;;;;;;;;;;;;;4973335;28;20333;-42
2022/08/04 09:06:14;;;;;;;;;;;;;;;;;;4976634;28;20380;-42
2022/08/04 09:08:40;;;;;;;;;;;;;;;;;;4976443;28;20406;-43
2022/08/04 09:11:05;;;;;;;;;;;;;;;;;;4976501;28;19914;-43
2022/08/04 09:13:30;;;;;;;;;;;;;;;;;;4976623;28;19933;-42
2022/08/04 09:15:56;;;;;;;;;;;;;;;;;;4976348;28;19910;-42
2022/08/04 09:18:21;;;;;;;;;;;;;;;;;;4976016;28;19922;-42
2022/08/04 09:20:46;;;;;;;;;;;;;;;;;;4976464;28;19917;-43
2022/08/04 09:23:12;;;;;;;;;;;;;;;;;;4976036;28;20004;-42
2022/08/04 09:25:37;;;;;;;;;;;;;;;;;;4976019;28;19910;-42
2022/08/04 09:28:02;;;;;;;;;;;;;;;;;;4976063;28;19906;-43
2022/08/04 09:30:28;;;;;;;;;;;;;;;;;;4975967;28;20467;-42
2022/08/04 09:32:53;;;;;;;;;;;;;;;;;;4976123;28;19906;-42
2022/08/04 09:35:18;;;;;;;;;;;;;;;;;;4976154;28;19936;-42
2022/08/04 09:37:44;;;;;;;;;;;;;;;;;;4975757;28;20004;-42
2022/08/04 09:40:09;;;;;;;;;;;;;;;;;;4975977;28;19913;-42
2022/08/04 09:42:34;;;;;;;;;;;;;;;;;;4975858;28;19964;-42
2022/08/04 09:45:00;;;;;;;;;;;;;;;;;;4976073;28;19917;-43
2022/08/04 09:47:25;;;;;;;;;;;;;;;;;;4975597;28;19910;-42
2022/08/04 09:49:50;;;;;;;;;;;;;;;;;;4975623;28;19910;-42
2022/08/04 09:52:16;;;;;;;;;;;;;;;;;;4975786;28;19913;-43
2022/08/04 09:54:41;;;;;;;;;;;;;;;;;;4975785;28;19995;-42
2022/08/04 09:57:07;;;;;;;;;;;;;;;;;;4975399;28;19914;-42
2022/08/04 09:59:33;;;;;;;;;;;;;;;;;;4975413;28;19917;-43
2022/08/04 10:01:58;;;;;;;;;;;;;;;;;;4975534;28;20713;-43
2022/08/04 10:04:24;;;;;;;;;;;;;;;;;;4975628;28;19956;-43
2022/08/04 10:06:50;;;;;;;;;;;;;;;;;;4975245;28;19906;-42
2022/08/04 10:09:15;;;;;;;;;;;;;;;;;;4975272;28;20280;-42
2022/08/04 10:11:40;;;;;;;;;;;;;;;;;;4975326;28;20246;-42
2022/08/04 10:14:06;;;;;;;;;;;;;;;;;;4975445;28;20349;-42
2022/08/04 10:16:31;;;;;;;;;;;;;;;;;;4974707;28;19906;-42
2022/08/04 10:18:56;;;;;;;;;;;;;;;;;;4975454;28;20417;-42
2022/08/04 10:21:22;;;;;;;;;;;;;;;;;;4975288;28;20005;-42
2022/08/04 10:23:47;;;;;;;;;;;;;;;;;;4975088;28;20388;-42
2022/08/04 10:26:12;;;;;;;;;;;;;;;;;;4974928;28;19913;-43
2022/08/04 10:28:38;;;;;;;;;;;;;;;;;;4974923;28;20272;-42
2022/08/04 10:31:03;;;;;;;;;;;;;;;;;;4974978;28;19949;-42
2022/08/04 10:33:28;;;;;;;;;;;;;;;;;;4974862;28;19937;-43
2022/08/04 10:35:54;;;;;;;;;;;;;;;;;;4974755;28;19910;-43
2022/08/04 10:38:19;;;;;;;;;;;;;;;;;;4974638;28;20012;-42
2022/08/04 10:40:45;;;;;;;;;;;;;;;;;;4974747;28;19953;-44
2022/08/04 10:43:11;;;;;;;;;;;;;;;;;;4974563;28;19910;-43
2022/08/04 10:45:36;;;;;;;;;;;;;;;;;;4974906;28;19913;-42
2022/08/04 10:48:01;;;;;;;;;;;;;;;;;;4974649;28;19910;-43
2022/08/04 10:50:27;;;;;;;;;;;;;;;;;;4974720;28;19906;-43
2022/08/04 10:52:54;;;;;;;;;;;;;;;;;;4957233;28;19932;-42
2022/08/04 10:55:19;;;;;;;;;;;;;;;;;;4974412;28;19917;-42
2022/08/04 10:57:44;;;;;;;;;;;;;;;;;;4974265;28;20374;-42
2022/08/04 11:00:11;;;;;;;;;;;;;;;;;;4974336;28;20048;-42
2022/08/04 11:02:36;;;;;;;;;;;;;;;;;;4974717;28;20288;-42
2022/08/04 11:05:02;;;;;;;;;;;;;;;;;;4974541;28;19956;-43
2022/08/04 11:07:27;;;;;;;;;;;;;;;;;;4974379;28;19951;-43
2022/08/04 11:09:52;;;;;;;;;;;;;;;;;;4974159;28;20582;-43
2022/08/04 11:12:18;;;;;;;;;;;;;;;;;;4974296;28;19920;-42
2022/08/04 11:14:44;;;;;;;;;;;;;;;;;;4974167;28;19913;-43
2022/08/04 11:17:09;;;;;;;;;;;;;;;;;;4974160;28;20280;-43
2022/08/04 11:19:34;;;;;;;;;;;;;;;;;;4974272;28;19910;-43
2022/08/04 11:22:00;;;;;;;;;;;;;;;;;;4974075;28;19914;-43
2022/08/04 11:24:25;;;;;;;;;;;;;;;;;;4973816;28;19913;-43
2022/08/04 11:26:50;;;;;;;;;;;;;;;;;;4955874;28;20000;-43
2022/08/04 11:29:16;;;;;;;;;;;;;;;;;;4973887;28;19909;-43
2022/08/04 11:31:42;;;;;;;;;;;;;;;;;;4973845;28;19916;-43
2022/08/04 11:34:07;;;;;;;;;;;;;;;;;;4973684;28;20315;-42
2022/08/04 11:36:33;;;;;;;;;;;;;;;;;;4973876;28;19917;-43
2022/08/04 11:38:59;;;;;;;;;;;;;;;;;;4973957;28;19933;-43
2022/08/04 11:41:24;;;;;;;;;;;;;;;;;;4973877;28;19910;-43
2022/08/04 11:43:49;;;;;;;;;;;;;;;;;;4973623;28;20353;-42
2022/08/04 11:46:15;;;;;;;;;;;;;;;;;;4973449;28;20258;-42
2022/08/04 11:48:40;;;;;;;;;;;;;;;;;;4956175;28;19913;-43
2022/08/04 11:51:05;;;;;;;;;;;;;;;;;;4973823;28;19917;-42
2022/08/04 11:53:31;;;;;;;;;;;;;;;;;;4973466;28;19913;-42
2022/08/04 11:55:56;;;;;;;;;;;;;;;;;;4973311;28;19910;-42
2022/08/04 11:58:21;;;;;;;;;;;;;;;;;;4973326;28;19918;-42
2022/08/04 12:00:47;;;;;;;;;;;;;;;;;;4952602;28;19922;-44
2022/08/04 12:03:12;;;;;;;;;;;;;;;;;;4954013;28;20013;-42
2022/08/04 12:05:38;;;;;;;;;;;;;;;;;;4954090;29;19941;-42
2022/08/04 12:08:03;;;;;;;;;;;;;;;;;;4952977;29;19910;-43
2022/08/04 12:10:28;;;;;;;;;;;;;;;;;;4954000;28;19918;-43
2022/08/04 12:12:53;;;;;;;;;;;;;;;;;;4954023;29;20421;-42
2022/08/04 12:15:19;;;;;;;;;;;;;;;;;;4954157;28;19938;-43
2022/08/04 12:17:44;;;;;;;;;;;;;;;;;;4953739;29;20293;-43
2022/08/04 12:20:11;;;;;;;;;;;;;;;;;;4953892;28;19911;-42
2022/08/04 12:22:37;;;;;;;;;;;;;;;;;;4953905;28;19913;-42
2022/08/04 12:25:03;;;;;;;;;;;;;;;;;;4953819;29;19918;-43
2022/08/04 12:27:28;;;;;;;;;;;;;;;;;;4953719;28;19921;-42
2022/08/04 12:29:53;;;;;;;;;;;;;;;;;;4953972;29;19933;-43
2022/08/04 12:32:20;;;;;;;;;;;;;;;;;;4954011;28;20265;-43
2022/08/04 12:34:45;;;;;;;;;;;;;;;;;;4953797;28;19910;-42
2022/08/04 12:37:10;;;;;;;;;;;;;;;;;;4953511;28;20423;-43
2022/08/04 12:39:38;;;;;;;;;;;;;;;;;;4957251;28;19914;-42
2022/08/04 12:42:03;;;;;;;;;;;;;;;;;;4957629;28;19906;-42
2022/08/04 12:44:29;;;;;;;;;;;;;;;;;;4957450;29;19965;-42
2022/08/04 12:46:54;;;;;;;;;;;;;;;;;;4957564;28;20361;-42
2022/08/04 12:49:19;;;;;;;;;;;;;;;;;;4957459;28;19910;-42
2022/08/04 12:51:45;;;;;;;;;;;;;;;;;;4957334;29;19914;-43
2022/08/04 12:54:11;;;;;;;;;;;;;;;;;;4957233;29;19911;-43
2022/08/04 12:56:36;;;;;;;;;;;;;;;;;;4957561;28;19953;-42
2022/08/04 12:59:01;;;;;;;;;;;;;;;;;;4957284;28;19969;-43
2022/08/04 13:01:28;;;;;;;;;;;;;;;;;;4973715;28;19968;-43
2022/08/04 13:03:53;;;;;;;;;;;;;;;;;;4976567;28;19957;-43
2022/08/04 13:06:18;;;;;;;;;;;;;;;;;;4976357;28;19914;-43
2022/08/04 13:08:44;;;;;;;;;;;;;;;;;;4976508;28;19917;-43
2022/08/04 13:11:10;;;;;;;;;;;;;;;;;;4976336;28;20335;-43
2022/08/04 13:13:35;;;;;;;;;;;;;;;;;;4976375;28;20002;-43
2022/08/04 13:16:00;;;;;;;;;;;;;;;;;;4976354;28;19906;-43
2022/08/04 13:18:26;;;;;;;;;;;;;;;;;;4976611;28;20397;-42
2022/08/04 13:20:51;;;;;;;;;;;;;;;;;;4976137;28;20390;-43
2022/08/04 13:23:16;;;;;;;;;;;;;;;;;;4976182;28;19914;-43
2022/08/04 13:25:42;;;;;;;;;;;;;;;;;;4976121;28;19906;-43
2022/08/04 13:28:07;;;;;;;;;;;;;;;;;;4976143;28;20376;-43
2022/08/04 13:30:32;;;;;;;;;;;;;;;;;;4976000;28;19960;-42
2022/08/04 13:32:58;;;;;;;;;;;;;;;;;;4975938;28;19937;-42
2022/08/04 13:35:23;;;;;;;;;;;;;;;;;;4975882;28;19913;-43
2022/08/04 13:37:49;;;;;;;;;;;;;;;;;;4975771;28;19922;-43
2022/08/04 13:40:15;;;;;;;;;;;;;;;;;;4976068;28;19913;-43
2022/08/04 13:42:40;;;;;;;;;;;;;;;;;;4975830;28;19997;-43
2022/08/04 13:45:06;;;;;;;;;;;;;;;;;;4976009;28;20357;-43
2022/08/04 13:47:32;;;;;;;;;;;;;;;;;;4975594;28;20386;-43
2022/08/04 13:49:57;;;;;;;;;;;;;;;;;;4974849;28;19928;-43
2022/08/04 13:52:23;;;;;;;;;;;;;;;;;;4975611;28;20361;-43
2022/08/04 13:54:48;;;;;;;;;;;;;;;;;;4975535;28;19909;-42
2022/08/04 13:57:13;;;;;;;;;;;;;;;;;;4975601;28;19924;-43
2022/08/04 13:59:39;;;;;;;;;;;;;;;;;;4975432;28;20356;-42
2022/08/04 14:02:05;;;;;;;;;;;;;;;;;;4975513;28;19981;-43
2022/08/04 14:04:30;;;;;;;;;;;;;;;;;;4975629;28;19906;-43
2022/08/04 14:06:56;;;;;;;;;;;;;;;;;;4975415;28;19910;-42
2022/08/04 14:09:22;;;;;;;;;;;;;;;;;;4975230;28;19960;-42
2022/08/04 14:11:48;;;;;;;;;;;;;;;;;;4975623;28;19945;-43
2022/08/04 14:14:13;;;;;;;;;;;;;;;;;;4975505;28;19913;-43
2022/08/04 14:16:39;;;;;;;;;;;;;;;;;;4975075;28;20324;-42
2022/08/04 14:19:04;;;;;;;;;;;;;;;;;;4975173;28;19917;-43
2022/08/04 14:21:30;;;;;;;;;;;;;;;;;;4957767;28;19914;-42
2022/08/04 14:23:56;;;;;;;;;;;;;;;;;;4941854;28;20348;-42
2022/08/04 14:26:21;;;;;;;;;;;;;;;;;;4974961;28;19910;-43
2022/08/04 14:28:46;;;;;;;;;;;;;;;;;;4975030;28;19910;-43
2022/08/04 14:31:12;;;;;;;;;;;;;;;;;;4974814;28;19910;-43
2022/08/04 14:33:38;;;;;;;;;;;;;;;;;;4974988;28;20029;-43
2022/08/04 14:36:03;;;;;;;;;;;;;;;;;;4957615;28;20559;-43
2022/08/04 14:38:37;;;;;;;;;;;;;;;;;;4957485;28;19918;-42
2022/08/04 14:41:02;;;;;;;;;;;;;;;;;;4974799;28;19914;-43
2022/08/04 14:43:28;;;;;;;;;;;;;;;;;;4974675;28;20059;-43
2022/08/04 14:45:54;;;;;;;;;;;;;;;;;;4974503;28;20012;-43
2022/08/04 14:48:20;;;;;;;;;;;;;;;;;;4974868;28;19914;-42
2022/08/04 14:50:46;;;;;;;;;;;;;;;;;;4974596;28;19910;-43
2022/08/04 14:53:12;;;;;;;;;;;;;;;;;;4974409;28;19906;-43
2022/08/04 14:55:37;;;;;;;;;;;;;;;;;;4974745;28;19917;-43
2022/08/04 14:58:03;;;;;;;;;;;;;;;;;;4974433;28;20280;-43
2022/08/04 15:00:28;;;;;;;;;;;;;;;;;;4974166;28;19929;-43
2022/08/04 15:02:54;;;;;;;;;;;;;;;;;;4974362;28;19913;-43
2022/08/04 15:05:19;;;;;;;;;;;;;;;;;;4974550;28;19910;-42
2022/08/04 15:07:45;;;;;;;;;;;;;;;;;;4956995;28;19960;-43
2022/08/04 15:10:10;;;;;;;;;;;;;;;;;;4974540;28;20379;-43
2022/08/04 15:12:36;;;;;;;;;;;;;;;;;;4974227;28;19906;-42
2022/08/04 15:15:01;;;;;;;;;;;;;;;;;;4974138;28;19914;-43
2022/08/04 15:17:26;;;;;;;;;;;;;;;;;;4973943;28;19957;-42
2022/08/04 15:19:52;;;;;;;;;;;;;;;;;;4974042;28;19914;-43
2022/08/04 15:22:17;;;;;;;;;;;;;;;;;;4973879;28;20424;-43
2022/08/04 15:24:43;;;;;;;;;;;;;;;;;;4973913;28;20008;-43
2022/08/04 15:27:08;;;;;;;;;;;;;;;;;;4973882;28;19910;-42
2022/08/04 15:29:33;;;;;;;;;;;;;;;;;;4973831;28;19910;-43
2022/08/04 15:31:59;;;;;;;;;;;;;;;;;;4973784;28;19910;-42
2022/08/04 15:34:24;;;;;;;;;;;;;;;;;;4973898;28;19910;-43
2022/08/04 15:36:50;;;;;;;;;;;;;;;;;;4973536;28;19906;-42
2022/08/04 15:39:15;;;;;;;;;;;;;;;;;;4973609;28;19910;-42
2022/08/04 15:41:40;;;;;;;;;;;;;;;;;;4973674;28;20277;-42
2022/08/04 15:44:06;;;;;;;;;;;;;;;;;;4973595;28;19910;-44
2022/08/04 15:46:31;;;;;;;;;;;;;;;;;;4956209;28;19945;-43
2022/08/04 15:48:56;;;;;;;;;;;;;;;;;;4973434;28;19910;-44
2022/08/04 15:51:22;;;;;;;;;;;;;;;;;;4973356;28;20000;-43
2022/08/04 15:53:47;;;;;;;;;;;;;;;;;;4973652;28;19960;-42
2022/08/04 15:56:12;;;;;;;;;;;;;;;;;;4973347;28;19910;-43
2022/08/04 15:58:38;;;;;;;;;;;;;;;;;;4973625;28;19928;-43
2022/08/04 16:01:03;;;;;;;;;;;;;;;;;;4973260;28;19922;-46
2022/08/04 16:03:29;;;;;;;;;;;;;;;;;;4973276;28;20304;-43
2022/08/04 16:05:54;;;;;;;;;;;;;;;;;;4973305;28;20276;-43
2022/08/04 16:08:20;;;;;;;;;;;;;;;;;;4973212;28;19910;-43
2022/08/04 16:10:47;;;;;;;;;;;;;;;;;;4973228;28;19960;-43
2022/08/04 16:13:13;;;;;;;;;;;;;;;;;;4972862;28;19910;-42
2022/08/04 16:15:38;;;;;;;;;;;;;;;;;;4973190;28;20001;-43
2022/08/04 16:18:04;;;;;;;;;;;;;;;;;;4973074;28;19925;-43
2022/08/04 16:20:29;;;;;;;;;;;;;;;;;;4973362;28;19913;-43
2022/08/04 16:22:55;;;;;;;;;;;;;;;;;;4973251;28;20000;-44
2022/08/04 16:25:21;;;;;;;;;;;;;;;;;;4972929;28;19969;-43
2022/08/04 16:27:46;;;;;;;;;;;;;;;;;;4973438;28;20004;-43
2022/08/04 16:30:11;;;;;;;;;;;;;;;;;;4973095;28;19906;-43
2022/08/04 16:32:38;;;;;;;;;;;;;;;;;;4973087;28;19953;-43